createdAt,value
2017-09-16T00:00:27.014Z,94.00
2017-09-16T00:02:56.093Z,93.16
2017-09-16T00:05:25.189Z,92.14
2017-09-16T00:07:54.302Z,92.18
2017-09-16T00:10:23.393Z,92.04
2017-09-16T00:12:52.486Z,92.45
2017-09-16T00:15:21.595Z,92.48
2017-09-16T00:17:50.678Z,91.73
2017-09-16T00:20:19.778Z,91.78
2017-09-16T00:22:48.895Z,92.67
2017-09-16T00:25:17.215Z,92.81
2017-09-16T00:27:45.566Z,92.24
2017-09-16T00:30:13.887Z,92.09
2017-09-16T00:32:42.206Z,92.11
2017-09-16T00:35:11.317Z,92.30
2017-09-16T00:37:39.637Z,91.93
2017-09-16T00:40:08.746Z,92.40
2017-09-16T00:42:37.074Z,92.18
2017-09-16T00:45:05.393Z,92.00
2017-09-16T00:47:33.742Z,91.77
2017-09-16T00:50:02.059Z,91.55
2017-09-16T00:52:30.378Z,91.49
2017-09-16T00:54:59.876Z,91.32
2017-09-16T00:57:29.068Z,91.30
2017-09-16T00:59:58.475Z,92.19
2017-09-16T01:02:27.597Z,92.12
2017-09-16T01:04:56.707Z,92.90
2017-09-16T01:07:25.081Z,91.70
2017-09-16T01:09:53.430Z,91.90
2017-09-16T01:12:21.774Z,92.57
2017-09-16T01:14:50.100Z,92.68
2017-09-16T01:17:19.206Z,92.24
2017-09-16T01:19:48.296Z,91.99
2017-09-16T01:22:17.395Z,92.00
2017-09-16T01:24:46.520Z,92.78
2017-09-16T01:27:14.856Z,93.08
2017-09-16T01:29:43.186Z,93.24
2017-09-16T01:32:11.543Z,93.20
2017-09-16T01:34:40.630Z,92.89
2017-09-16T01:37:09.714Z,91.97
2017-09-16T01:39:38.062Z,92.27
2017-09-16T01:42:06.377Z,91.97
2017-09-16T01:44:34.690Z,92.46
2017-09-16T01:47:03.025Z,92.69
2017-09-16T01:49:31.338Z,92.20
2017-09-16T01:51:59.745Z,92.10
2017-09-16T01:54:28.062Z,91.61
2017-09-16T01:56:56.378Z,91.47
2017-09-16T01:59:25.489Z,91.09
2017-09-16T02:01:54.673Z,91.31
2017-09-16T02:04:23.750Z,91.85
2017-09-16T02:06:52.087Z,91.28
2017-09-16T02:09:20.401Z,92.20
2017-09-16T02:11:48.751Z,91.78
2017-09-16T02:14:17.844Z,91.29
2017-09-16T02:16:46.150Z,91.41
2017-09-16T02:19:14.502Z,91.79
2017-09-16T02:21:42.817Z,91.67
2017-09-16T02:24:11.122Z,91.62
2017-09-16T02:26:40.227Z,92.75
2017-09-16T02:29:09.299Z,93.13
2017-09-16T02:31:37.684Z,92.66
2017-09-16T02:34:05.983Z,92.83
2017-09-16T02:36:35.058Z,92.57
2017-09-16T02:39:04.189Z,91.77
2017-09-16T02:41:32.506Z,91.41
2017-09-16T02:44:00.867Z,91.01
2017-09-16T02:46:29.192Z,91.01
2017-09-16T02:48:57.511Z,91.47
2017-09-16T02:51:25.856Z,91.17
2017-09-16T02:53:54.170Z,91.53
2017-09-16T02:56:22.509Z,91.93
2017-09-16T02:58:50.827Z,90.76
2017-09-16T03:01:19.169Z,90.92
2017-09-16T03:03:47.487Z,90.71
2017-09-16T03:06:15.804Z,91.72
2017-09-16T03:08:44.145Z,91.27
2017-09-16T03:11:12.453Z,91.23
2017-09-16T03:13:40.766Z,91.09
2017-09-16T03:16:09.106Z,90.67
2017-09-16T03:18:37.422Z,90.67
2017-09-16T03:21:05.764Z,90.64
2017-09-16T03:23:34.074Z,91.06
2017-09-16T03:26:02.387Z,91.79
2017-09-16T03:28:31.487Z,91.43
2017-09-16T03:31:00.566Z,91.77
2017-09-16T03:33:29.676Z,90.86
2017-09-16T03:35:58.762Z,90.59
2017-09-16T03:38:27.907Z,90.38
2017-09-16T03:40:56.254Z,90.02
2017-09-16T03:43:25.326Z,89.78
2017-09-16T03:45:53.629Z,90.77
2017-09-16T03:48:22.741Z,90.50
2017-09-16T03:50:51.066Z,90.30
2017-09-16T03:53:19.387Z,90.97
2017-09-16T03:55:48.491Z,90.07
2017-09-16T03:58:16.821Z,90.69
2017-09-16T04:00:45.126Z,91.06
2017-09-16T04:03:13.462Z,91.04
2017-09-16T04:05:41.770Z,92.08
2017-09-16T04:08:10.087Z,91.86
2017-09-16T04:10:39.185Z,91.66
2017-09-16T04:13:08.263Z,91.72
2017-09-16T04:15:36.570Z,91.84
2017-09-16T04:18:04.915Z,92.35
2017-09-16T04:20:33.250Z,92.45
2017-09-16T04:23:01.562Z,92.19
2017-09-16T04:25:29.908Z,93.37
2017-09-16T04:27:58.220Z,94.99
2017-09-16T04:30:26.530Z,94.83
2017-09-16T04:32:55.630Z,95.31
2017-09-16T04:35:24.705Z,95.40
2017-09-16T04:37:53.010Z,95.14
2017-09-16T04:40:22.138Z,95.04
2017-09-16T04:42:50.441Z,94.34
2017-09-16T04:45:18.747Z,93.84
2017-09-16T04:47:47.088Z,93.31
2017-09-16T04:50:15.405Z,92.53
2017-09-16T04:52:43.718Z,92.16
2017-09-16T04:55:12.050Z,92.04
2017-09-16T04:57:40.363Z,92.62
2017-09-16T05:00:09.445Z,92.41
2017-09-16T05:02:37.786Z,92.04
2017-09-16T05:05:06.100Z,92.04
2017-09-16T05:07:34.423Z,92.00
2017-09-16T05:10:02.770Z,91.71
2017-09-16T05:12:31.846Z,91.76
2017-09-16T05:15:00.155Z,91.88
2017-09-16T05:17:29.250Z,91.56
2017-09-16T05:19:58.318Z,91.69
2017-09-16T05:22:26.650Z,91.00
2017-09-16T05:24:54.955Z,91.79
2017-09-16T05:27:23.305Z,91.09
2017-09-16T05:29:51.634Z,91.39
2017-09-16T05:32:20.207Z,91.69
2017-09-16T05:34:48.544Z,92.41
2017-09-16T05:37:16.862Z,92.38
2017-09-16T05:39:45.200Z,92.22
2017-09-16T05:42:14.274Z,92.56
2017-09-16T05:44:42.590Z,92.33
2017-09-16T05:47:10.938Z,92.35
2017-09-16T05:49:40.010Z,91.99
2017-09-16T05:52:08.346Z,91.82
2017-09-16T05:54:36.662Z,91.18
2017-09-16T05:57:04.970Z,91.27
2017-09-16T05:59:33.401Z,90.26
2017-09-16T06:02:01.710Z,90.38
2017-09-16T06:04:30.043Z,91.42
2017-09-16T06:06:58.357Z,92.00
2017-09-16T06:09:26.686Z,92.19
2017-09-16T06:11:55.794Z,91.13
2017-09-16T06:14:24.102Z,91.45
2017-09-16T06:16:52.414Z,91.64
2017-09-16T06:19:20.751Z,91.08
2017-09-16T06:21:49.073Z,92.39
2017-09-16T06:24:17.382Z,92.29
2017-09-16T06:26:46.483Z,93.51
2017-09-16T06:29:14.802Z,93.13
2017-09-16T06:31:43.117Z,92.99
2017-09-16T06:34:11.455Z,91.73
2017-09-16T06:36:39.779Z,92.57
2017-09-16T06:39:08.094Z,93.80
2017-09-16T06:41:36.450Z,94.45
2017-09-16T06:44:05.530Z,94.44
2017-09-16T06:46:33.836Z,95.09
2017-09-16T06:49:02.935Z,95.51
2017-09-16T06:51:32.034Z,96.45
2017-09-16T06:54:01.106Z,96.11
2017-09-16T06:56:29.417Z,95.90
2017-09-16T06:58:57.755Z,95.55
2017-09-16T07:01:26.061Z,95.95
2017-09-16T07:03:55.147Z,95.36
2017-09-16T07:06:23.494Z,94.84
2017-09-16T07:08:51.797Z,94.42
2017-09-16T07:11:20.102Z,94.15
2017-09-16T07:13:49.199Z,94.82
2017-09-16T07:16:18.286Z,94.25
2017-09-16T07:18:47.358Z,94.39
2017-09-16T07:21:15.704Z,93.11
2017-09-16T07:23:44.020Z,92.81
2017-09-16T07:26:12.342Z,94.19
2017-09-16T07:28:40.677Z,94.05
2017-09-16T07:31:08.985Z,94.66
2017-09-16T07:33:38.066Z,95.58
2017-09-16T07:36:06.404Z,95.38
2017-09-16T07:38:34.718Z,95.00
2017-09-16T07:41:03.030Z,94.94
2017-09-16T07:43:32.143Z,95.11
2017-09-16T07:46:00.469Z,95.77
2017-09-16T07:48:28.820Z,95.41
2017-09-16T07:50:57.127Z,94.76
2017-09-16T07:53:25.435Z,94.56
2017-09-16T07:55:54.550Z,94.51
2017-09-16T07:58:22.858Z,94.35
2017-09-16T08:00:51.166Z,94.24
2017-09-16T08:03:19.503Z,93.88
2017-09-16T08:05:47.811Z,93.49
2017-09-16T08:08:16.161Z,93.11
2017-09-16T08:10:44.472Z,92.11
2017-09-16T08:13:12.785Z,92.64
2017-09-16T08:15:41.891Z,92.06
2017-09-16T08:18:10.989Z,91.95
2017-09-16T08:20:40.074Z,91.29
2017-09-16T08:23:08.431Z,90.35
2017-09-16T08:25:36.744Z,91.08
2017-09-16T08:28:05.839Z,92.84
2017-09-16T08:30:35.425Z,91.27
2017-09-16T08:33:03.766Z,92.26
2017-09-16T08:35:32.075Z,92.43
2017-09-16T08:38:00.434Z,90.99
2017-09-16T08:40:28.754Z,90.32
2017-09-16T08:42:57.074Z,91.02
2017-09-16T08:45:25.419Z,89.47
2017-09-16T08:47:54.514Z,89.62
2017-09-16T08:50:22.830Z,90.80
2017-09-16T08:52:51.192Z,89.98
2017-09-16T08:55:20.274Z,90.04
2017-09-16T08:57:48.654Z,89.84
2017-09-16T09:00:17.054Z,89.79
2017-09-16T09:02:46.154Z,88.87
2017-09-16T09:05:15.291Z,90.19
2017-09-16T09:07:43.638Z,89.50
2017-09-16T09:10:12.759Z,89.23
2017-09-16T09:12:41.113Z,89.41
2017-09-16T09:15:09.599Z,90.34
2017-09-16T09:17:38.698Z,90.66
2017-09-16T09:20:08.069Z,89.50
2017-09-16T09:22:36.441Z,89.61
2017-09-16T09:25:04.761Z,90.28
2017-09-16T09:27:33.915Z,90.08
2017-09-16T09:30:02.287Z,90.42
2017-09-16T09:32:30.612Z,90.46
2017-09-16T09:34:59.728Z,89.70
2017-09-16T09:37:28.044Z,89.91
2017-09-16T09:39:56.443Z,89.56
2017-09-16T09:42:24.758Z,89.34
2017-09-16T09:44:53.887Z,88.50
2017-09-16T09:47:22.228Z,88.61
2017-09-16T09:49:51.314Z,88.27
2017-09-16T09:52:20.423Z,88.90
2017-09-16T09:54:49.505Z,88.36
2017-09-16T09:57:17.832Z,89.50
2017-09-16T09:59:46.174Z,86.41
2017-09-16T10:02:15.264Z,85.82
2017-09-16T10:04:44.355Z,84.80
2017-09-16T10:07:12.707Z,84.18
2017-09-16T10:09:41.127Z,84.46
2017-09-16T10:12:10.273Z,82.83
2017-09-16T10:14:38.622Z,82.85
2017-09-16T10:17:07.715Z,83.74
2017-09-16T10:19:36.809Z,82.77
2017-09-16T10:22:05.959Z,81.93
2017-09-16T10:24:34.429Z,82.43
2017-09-16T10:27:03.032Z,81.57
2017-09-16T10:29:31.400Z,80.79
2017-09-16T10:31:59.723Z,80.26
2017-09-16T10:34:28.257Z,80.79
2017-09-16T10:36:56.602Z,79.50
2017-09-16T10:39:25.698Z,79.89
2017-09-16T10:41:54.815Z,80.47
2017-09-16T10:44:23.153Z,81.98
2017-09-16T10:46:51.562Z,81.72
2017-09-16T10:49:20.671Z,81.31
2017-09-16T10:51:49.147Z,80.56
2017-09-16T10:54:19.920Z,80.99
2017-09-16T10:56:48.393Z,79.61
2017-09-16T10:59:16.882Z,79.06
2017-09-16T11:01:45.251Z,79.42
2017-09-16T11:04:13.734Z,79.14
2017-09-16T11:06:42.070Z,80.05
2017-09-16T11:09:10.402Z,81.26
2017-09-16T11:11:38.718Z,79.92
2017-09-16T11:14:07.266Z,78.91
2017-09-16T11:16:35.744Z,77.49
2017-09-16T11:19:04.189Z,76.93
2017-09-16T11:21:33.299Z,76.89
2017-09-16T11:24:02.503Z,75.34
2017-09-16T11:26:31.590Z,74.65
2017-09-16T11:29:00.792Z,76.35
2017-09-16T11:31:30.338Z,76.16
2017-09-16T11:33:58.851Z,74.99
2017-09-16T11:36:27.358Z,75.25
2017-09-16T11:38:56.522Z,76.32
2017-09-16T11:41:24.975Z,74.68
2017-09-16T11:43:53.326Z,74.51
2017-09-16T11:46:22.426Z,75.02
2017-09-16T11:48:51.606Z,75.38
2017-09-16T11:51:19.951Z,75.49
2017-09-16T11:53:48.276Z,76.46
2017-09-16T11:56:16.606Z,73.11
2017-09-16T11:58:44.952Z,74.80
2017-09-16T12:01:14.056Z,75.71
2017-09-16T12:03:43.169Z,74.32
2017-09-16T12:06:11.573Z,75.47
2017-09-16T12:08:39.890Z,74.78
2017-09-16T12:11:08.987Z,71.59
2017-09-16T12:13:38.103Z,70.37
2017-09-16T12:16:07.189Z,67.99
2017-09-16T12:18:36.276Z,68.40
2017-09-16T12:21:04.628Z,69.46
2017-09-16T12:23:32.948Z,67.93
2017-09-16T12:26:02.040Z,68.91
2017-09-16T12:28:30.389Z,69.16
2017-09-16T12:30:58.707Z,69.12
2017-09-16T12:33:27.803Z,69.00
2017-09-16T12:35:56.919Z,70.13
2017-09-16T12:38:26.039Z,68.50
2017-09-16T12:40:54.359Z,67.70
2017-09-16T12:43:22.733Z,66.19
2017-09-16T12:45:51.062Z,66.12
2017-09-16T12:48:19.383Z,67.07
2017-09-16T12:50:47.755Z,64.85
2017-09-16T12:53:16.075Z,65.30
2017-09-16T12:55:44.400Z,63.49
2017-09-16T12:58:12.749Z,60.79
2017-09-16T13:00:41.857Z,60.86
2017-09-16T13:03:10.943Z,59.32
2017-09-16T13:05:40.076Z,61.21
2017-09-16T13:08:08.403Z,58.66
2017-09-16T13:10:36.732Z,58.93
2017-09-16T13:13:05.071Z,58.29
2017-09-16T13:15:34.159Z,57.25
2017-09-16T13:18:02.478Z,59.69
2017-09-16T13:20:30.822Z,57.60
2017-09-16T13:22:59.136Z,59.87
2017-09-16T13:25:27.458Z,62.01
2017-09-16T13:27:55.809Z,63.43
2017-09-16T13:30:24.123Z,63.60
2017-09-16T13:32:53.220Z,59.87
2017-09-16T13:35:21.574Z,62.57
2017-09-16T13:37:49.911Z,60.38
2017-09-16T13:40:19.011Z,60.48
2017-09-16T13:42:47.387Z,58.65
2017-09-16T13:45:16.480Z,55.41
2017-09-16T13:47:45.574Z,55.58
2017-09-16T13:50:13.918Z,53.68
2017-09-16T13:52:42.246Z,49.45
2017-09-16T13:55:11.334Z,48.65
2017-09-16T13:57:40.455Z,47.99
2017-09-16T14:00:09.541Z,44.20
2017-09-16T14:02:38.630Z,40.53
2017-09-16T14:05:07.743Z,45.77
2017-09-16T14:07:36.825Z,45.22
2017-09-16T14:10:05.914Z,39.78
2017-09-16T14:12:34.284Z,41.82
2017-09-16T14:15:02.603Z,45.58
2017-09-16T14:17:31.003Z,48.10
2017-09-16T14:19:59.356Z,51.13
2017-09-16T14:22:28.447Z,53.17
2017-09-16T14:24:57.598Z,54.43
2017-09-16T14:27:25.942Z,53.69
2017-09-16T14:29:55.023Z,56.53
2017-09-16T14:32:24.108Z,54.29
2017-09-16T14:34:52.451Z,53.61
2017-09-16T14:37:20.765Z,53.75
2017-09-16T14:39:49.078Z,53.56
2017-09-16T14:42:17.422Z,53.90
2017-09-16T14:44:45.738Z,53.65
2017-09-16T14:47:14.102Z,50.76
2017-09-16T14:49:43.202Z,48.70
2017-09-16T14:52:12.283Z,51.47
2017-09-16T14:54:40.631Z,49.93
2017-09-16T14:57:08.951Z,54.36
2017-09-16T14:59:38.042Z,53.56
2017-09-16T15:02:06.388Z,52.69
2017-09-16T15:04:34.707Z,53.01
2017-09-16T15:07:03.823Z,52.39
2017-09-16T15:09:32.914Z,50.48
2017-09-16T15:12:01.995Z,51.16
2017-09-16T15:14:30.344Z,52.90
2017-09-16T15:16:58.678Z,54.56
2017-09-16T15:19:27.814Z,56.12
2017-09-16T15:21:56.130Z,58.50
2017-09-16T15:24:24.462Z,59.96
2017-09-16T15:26:52.809Z,59.94
2017-09-16T15:29:21.895Z,61.52
2017-09-16T15:31:50.215Z,61.53
2017-09-16T15:34:18.601Z,61.88
2017-09-16T15:36:46.928Z,58.98
2017-09-16T15:39:15.246Z,55.64
2017-09-16T15:41:43.587Z,51.71
2017-09-16T15:44:11.898Z,49.52
2017-09-16T15:46:40.222Z,47.43
2017-09-16T15:49:08.562Z,47.24
2017-09-16T15:51:36.889Z,47.22
2017-09-16T15:54:05.243Z,45.94
2017-09-16T15:56:33.563Z,45.74
2017-09-16T15:59:01.886Z,48.27
2017-09-16T16:01:30.227Z,50.95
2017-09-16T16:03:58.554Z,53.74
2017-09-16T16:06:26.870Z,52.24
2017-09-16T16:08:55.211Z,53.80
2017-09-16T16:11:23.532Z,53.70
2017-09-16T16:13:51.878Z,52.43
2017-09-16T16:16:20.260Z,54.38
2017-09-16T16:18:48.575Z,54.61
2017-09-16T16:21:16.917Z,54.45
2017-09-16T16:39:01.539Z,53.17
2017-09-16T16:41:29.860Z,54.00
2017-09-16T16:43:58.185Z,56.53
2017-09-16T16:46:26.530Z,56.97
2017-09-16T16:48:54.842Z,58.15
2017-09-16T16:51:23.166Z,57.55
2017-09-16T16:53:52.288Z,60.21
2017-09-16T16:56:20.611Z,62.17
2017-09-16T16:58:48.931Z,63.86
2017-09-16T17:01:17.293Z,66.05
2017-09-16T17:03:46.378Z,65.90
2017-09-16T17:06:14.704Z,66.02
2017-09-16T17:08:43.048Z,69.02
2017-09-16T17:11:12.132Z,68.97
2017-09-16T17:13:40.447Z,72.43
2017-09-16T17:16:08.800Z,74.22
2017-09-16T17:18:37.884Z,76.38
2017-09-16T17:21:06.194Z,76.93
2017-09-16T17:23:35.306Z,77.10
2017-09-16T17:26:03.619Z,76.78
2017-09-16T17:28:31.942Z,74.81
2017-09-16T17:31:01.051Z,74.76
2017-09-16T17:33:30.146Z,74.85
2017-09-16T17:35:59.230Z,75.83
2017-09-16T17:38:28.334Z,77.06
2017-09-16T17:40:57.423Z,76.86
2017-09-16T17:43:25.739Z,76.92
2017-09-16T17:45:54.078Z,77.44
2017-09-16T17:48:22.399Z,77.94
2017-09-16T17:50:50.739Z,78.22
2017-09-16T17:53:19.834Z,78.42
2017-09-16T17:55:48.156Z,78.53
2017-09-16T17:58:16.515Z,78.97
2017-09-16T18:00:44.850Z,79.03
2017-09-16T18:03:13.202Z,79.51
2017-09-16T18:05:41.514Z,79.62
2017-09-16T18:08:09.826Z,81.03
2017-09-16T18:10:38.930Z,80.11
2017-09-16T18:13:07.248Z,81.21
2017-09-16T18:15:35.586Z,82.19
2017-09-16T18:18:04.702Z,83.03
2017-09-16T18:20:33.030Z,82.81
2017-09-16T18:23:01.355Z,82.77
2017-09-16T18:25:29.698Z,82.00
2017-09-16T18:27:58.014Z,81.96
2017-09-16T18:30:26.340Z,81.99
2017-09-16T18:32:54.687Z,82.40
2017-09-16T18:35:23.002Z,82.00
2017-09-16T18:37:51.354Z,82.13
2017-09-16T18:40:19.680Z,82.33
2017-09-16T18:42:47.998Z,82.22
2017-09-16T18:45:16.340Z,83.94
2017-09-16T18:47:44.668Z,83.25
2017-09-16T18:50:12.998Z,83.36
2017-09-16T18:52:41.342Z,83.96
2017-09-16T18:55:09.667Z,83.03
2017-09-16T18:57:38.766Z,83.44
2017-09-16T19:00:07.875Z,83.96
2017-09-16T19:02:36.966Z,83.78
2017-09-16T19:05:06.050Z,84.11
2017-09-16T19:07:34.390Z,84.95
2017-09-16T19:10:02.712Z,85.11
2017-09-16T19:12:31.026Z,84.65
2017-09-16T19:14:59.371Z,84.24
2017-09-16T19:17:27.702Z,83.78
2017-09-16T19:19:56.015Z,85.15
2017-09-16T19:22:24.363Z,84.72
2017-09-16T19:24:52.686Z,84.87
2017-09-16T19:27:21.021Z,84.28
2017-09-16T19:29:49.363Z,83.72
2017-09-16T19:32:18.459Z,83.56
2017-09-16T19:34:47.535Z,83.70
2017-09-16T19:37:15.874Z,83.92
2017-09-16T19:39:44.188Z,84.12
2017-09-16T19:42:12.503Z,84.06
2017-09-16T19:44:41.615Z,85.76
2017-09-16T19:47:09.940Z,86.93
2017-09-16T19:49:38.291Z,86.76
2017-09-16T19:52:06.639Z,86.25
2017-09-16T19:54:35.737Z,86.27
2017-09-16T19:57:04.826Z,86.20
2017-09-16T19:59:33.950Z,85.76
2017-09-16T20:02:02.267Z,85.45
2017-09-16T20:04:30.586Z,85.14
2017-09-16T20:06:59.694Z,85.83
2017-09-16T20:09:28.775Z,86.55
2017-09-16T20:11:57.095Z,86.95
2017-09-16T20:14:25.435Z,86.22
2017-09-16T20:16:54.534Z,85.58
2017-09-16T20:19:23.628Z,85.05
2017-09-16T20:21:52.757Z,85.22
2017-09-16T20:24:21.071Z,85.16
2017-09-16T20:26:49.393Z,84.79
2017-09-16T20:29:18.499Z,85.06
2017-09-16T20:31:47.578Z,84.84
2017-09-16T20:34:15.894Z,86.05
2017-09-16T20:36:44.233Z,87.35
2017-09-16T20:39:12.542Z,87.60
2017-09-16T20:41:41.648Z,86.58
2017-09-16T20:44:10.049Z,86.96
2017-09-16T20:46:38.366Z,87.11
2017-09-16T20:49:06.746Z,87.11
2017-09-16T20:51:35.062Z,86.73
2017-09-16T20:54:04.144Z,86.61
2017-09-16T20:56:33.223Z,86.73
2017-09-16T20:59:01.558Z,87.31
2017-09-16T21:01:29.874Z,88.99
2017-09-16T21:03:58.208Z,88.49
2017-09-16T21:06:26.515Z,87.84
2017-09-16T21:08:54.818Z,87.58
2017-09-16T21:11:23.158Z,87.34
2017-09-16T21:13:51.477Z,87.05
2017-09-16T21:16:19.790Z,87.34
2017-09-16T21:18:48.894Z,87.57
2017-09-16T21:21:17.224Z,87.46
2017-09-16T21:23:45.546Z,87.07
2017-09-16T21:26:14.650Z,88.94
2017-09-16T21:28:43.715Z,89.43
2017-09-16T21:31:12.035Z,89.76
2017-09-16T21:33:40.371Z,89.71
2017-09-16T21:36:08.690Z,89.09
2017-09-16T21:38:37.046Z,89.07
2017-09-16T21:41:06.126Z,88.45
2017-09-16T21:43:34.466Z,88.30
2017-09-16T21:46:02.809Z,87.78
2017-09-16T21:48:31.905Z,87.50
2017-09-16T21:51:01.023Z,87.60
2017-09-16T21:53:29.350Z,88.39
2017-09-16T21:55:57.667Z,88.92
2017-09-16T21:58:26.780Z,88.51
2017-09-16T22:00:55.125Z,88.76
2017-09-16T22:03:23.441Z,88.73
2017-09-16T22:05:51.790Z,89.60
2017-09-16T22:08:20.119Z,89.49
2017-09-16T22:10:48.442Z,89.93
2017-09-16T22:13:16.794Z,90.94
2017-09-16T22:15:45.116Z,90.92
2017-09-16T22:18:14.207Z,90.58
2017-09-16T22:20:42.560Z,90.37
2017-09-16T22:23:10.885Z,91.76
2017-09-16T22:25:39.980Z,91.56
2017-09-16T22:28:09.110Z,90.32
2017-09-16T22:30:37.478Z,89.41
2017-09-16T22:33:05.799Z,88.91
2017-09-16T22:35:34.148Z,88.78
2017-09-16T22:38:02.462Z,89.24
2017-09-16T22:40:30.795Z,89.16
2017-09-16T22:42:59.142Z,88.89
2017-09-16T22:45:27.471Z,88.45
2017-09-16T22:47:55.786Z,87.87
2017-09-16T22:50:24.138Z,88.39
2017-09-16T22:52:52.490Z,89.74
2017-09-16T22:55:20.803Z,93.14
2017-09-16T22:57:49.169Z,93.39
2017-09-16T23:00:17.485Z,92.47
2017-09-16T23:02:45.801Z,91.17
2017-09-16T23:05:14.905Z,91.40
2017-09-16T23:07:43.269Z,90.42
2017-09-16T23:10:12.356Z,89.95
2017-09-16T23:12:40.704Z,89.81
2017-09-16T23:15:09.059Z,89.36
2017-09-16T23:17:37.382Z,90.27
2017-09-16T23:20:05.723Z,89.22
2017-09-16T23:22:34.054Z,88.93
2017-09-16T23:25:02.369Z,89.37
2017-09-16T23:27:30.709Z,89.45
2017-09-16T23:29:59.037Z,90.01
2017-09-16T23:32:27.346Z,89.12
2017-09-16T23:34:55.690Z,89.74
2017-09-16T23:37:24.243Z,89.46
2017-09-16T23:39:52.907Z,88.79
2017-09-16T23:42:22.301Z,89.17
2017-09-16T23:44:50.956Z,88.92
2017-09-16T23:47:19.563Z,88.93
2017-09-16T23:49:48.169Z,88.53
2017-09-16T23:52:17.566Z,89.40
2017-09-16T23:54:46.072Z,90.24
2017-09-16T23:57:14.553Z,90.99
2017-09-16T23:59:43.118Z,90.22
